createdAt,value
2018-05-25T00:00:53.707Z,70.59
2018-05-25T00:03:22.482Z,71.09
2018-05-25T00:05:51.234Z,70.48
2018-05-25T00:08:19.990Z,70.35
2018-05-25T00:10:48.755Z,70.00
2018-05-25T00:13:17.513Z,69.50
2018-05-25T00:15:46.677Z,68.88
2018-05-25T00:18:16.205Z,68.46
2018-05-25T00:20:44.949Z,68.17
2018-05-25T00:23:13.711Z,68.06
2018-05-25T00:25:42.456Z,68.23
2018-05-25T00:28:11.629Z,69.04
2018-05-25T00:30:40.464Z,69.44
2018-05-25T00:36:13.396Z,68.87
2018-05-25T00:38:42.171Z,68.72
2018-05-25T00:41:12.008Z,68.27
2018-05-25T00:43:40.801Z,68.57
2018-05-25T00:46:09.669Z,68.40
2018-05-25T00:48:39.277Z,69.55
2018-05-25T00:51:08.013Z,69.74
2018-05-25T00:53:36.733Z,69.77
2018-05-25T00:56:05.541Z,69.51
2018-05-25T00:58:34.331Z,68.91
2018-05-25T01:01:03.115Z,70.17
2018-05-25T01:03:31.883Z,71.34
2018-05-25T01:06:00.691Z,72.10
2018-05-25T01:08:29.482Z,72.06
2018-05-25T01:10:58.216Z,72.19
2018-05-25T01:13:27.039Z,70.92
2018-05-25T01:15:55.788Z,70.45
2018-05-25T01:18:25.317Z,71.18
2018-05-25T01:20:54.882Z,71.74
2018-05-25T01:23:23.645Z,70.80
2018-05-25T01:25:52.393Z,70.12
2018-05-25T01:28:21.944Z,69.78
2018-05-25T01:30:50.721Z,69.88
2018-05-25T01:33:19.996Z,70.14
2018-05-25T01:35:48.803Z,70.48
2018-05-25T01:38:17.608Z,70.96
2018-05-25T01:40:46.390Z,70.56
2018-05-25T01:43:15.168Z,70.19
2018-05-25T01:45:43.933Z,69.55
2018-05-25T01:48:12.670Z,69.67
2018-05-25T01:50:41.485Z,69.50
2018-05-25T01:53:10.231Z,68.89
2018-05-25T01:55:39.832Z,68.48
2018-05-25T01:58:08.583Z,68.53
2018-05-25T02:00:37.324Z,68.17
2018-05-25T02:03:06.088Z,67.99
2018-05-25T02:05:34.880Z,68.38
2018-05-25T02:08:03.617Z,68.56
2018-05-25T02:10:32.386Z,68.20
2018-05-25T02:13:01.222Z,68.22
2018-05-25T02:15:29.989Z,67.88
2018-05-25T02:17:59.563Z,67.53
2018-05-25T02:20:28.325Z,67.55
2018-05-25T02:22:57.079Z,67.20
2018-05-25T02:25:25.830Z,67.42
2018-05-25T02:27:54.597Z,67.04
2018-05-25T02:30:23.335Z,67.47
2018-05-25T02:32:52.100Z,67.86
2018-05-25T02:35:20.909Z,68.76
2018-05-25T02:37:49.660Z,68.13
2018-05-25T02:40:18.453Z,67.78
2018-05-25T02:42:48.021Z,69.02
2018-05-25T02:45:16.752Z,69.57
2018-05-25T02:47:46.059Z,69.77
2018-05-25T02:50:14.840Z,69.64
2018-05-25T02:52:43.642Z,70.34
2018-05-25T02:55:12.445Z,70.25
2018-05-25T02:57:41.269Z,69.20
2018-05-25T03:00:10.139Z,69.72
2018-05-25T03:02:38.898Z,70.96
2018-05-25T03:05:07.702Z,70.92
2018-05-25T03:07:36.454Z,71.44
2018-05-25T03:10:05.239Z,70.85
2018-05-25T03:12:35.043Z,69.93
2018-05-25T03:15:03.889Z,69.13
2018-05-25T03:17:33.606Z,68.76
2018-05-25T03:20:02.430Z,68.44
2018-05-25T03:22:31.173Z,68.55
2018-05-25T03:25:00.542Z,69.00
2018-05-25T03:27:31.150Z,69.41
2018-05-25T03:30:00.569Z,70.38
2018-05-25T03:32:31.179Z,69.67
2018-05-25T03:35:00.711Z,70.24
2018-05-25T03:37:31.334Z,70.11
2018-05-25T03:40:00.638Z,69.71
2018-05-25T03:42:31.225Z,69.83
2018-05-25T03:45:00.708Z,69.80
2018-05-25T03:47:33.654Z,69.47
2018-05-25T03:50:03.630Z,68.64
2018-05-25T03:52:32.369Z,69.07
2018-05-25T03:55:01.143Z,70.00
2018-05-25T03:57:31.021Z,69.33
2018-05-25T04:00:12.754Z,67.90
2018-05-25T04:02:41.525Z,67.81
2018-05-25T04:05:11.308Z,66.59
2018-05-25T04:07:40.747Z,66.16
2018-05-25T04:10:09.862Z,65.90
2018-05-25T04:12:38.594Z,65.63
2018-05-25T04:15:07.364Z,65.31
2018-05-25T04:17:37.598Z,65.33
2018-05-25T04:20:07.971Z,65.67
2018-05-25T04:22:38.227Z,66.34
2018-05-25T04:25:07.410Z,66.22
2018-05-25T04:27:36.910Z,66.12
2018-05-25T04:30:06.469Z,65.88
2018-05-25T04:32:35.225Z,65.90
2018-05-25T04:35:03.996Z,65.30
2018-05-25T04:37:33.530Z,65.29
2018-05-25T04:40:02.297Z,65.13
2018-05-25T04:42:31.149Z,64.67
2018-05-25T04:45:00.332Z,64.18
2018-05-25T04:47:29.133Z,64.07
2018-05-25T04:49:57.973Z,64.09
2018-05-25T04:52:26.805Z,64.96
2018-05-25T04:54:55.612Z,64.08
2018-05-25T04:57:24.371Z,64.53
2018-05-25T04:59:53.349Z,65.30
2018-05-25T05:02:22.198Z,65.33
2018-05-25T05:04:51.008Z,65.93
2018-05-25T05:07:19.762Z,65.12
2018-05-25T05:09:48.539Z,65.28
2018-05-25T05:12:17.296Z,65.58
2018-05-25T05:14:46.139Z,66.02
2018-05-25T05:17:14.932Z,66.47
2018-05-25T05:19:43.681Z,65.79
2018-05-25T05:22:13.621Z,66.52
2018-05-25T05:24:43.132Z,67.47
2018-05-25T05:27:11.931Z,68.02
2018-05-25T05:29:40.714Z,68.06
2018-05-25T05:32:09.457Z,67.98
2018-05-25T05:34:38.246Z,67.90
2018-05-25T05:37:07.009Z,66.55
2018-05-25T05:39:35.893Z,66.04
2018-05-25T05:42:04.653Z,64.26
2018-05-25T05:44:33.427Z,65.48
2018-05-25T05:47:02.185Z,66.77
2018-05-25T05:49:31.761Z,67.69
2018-05-25T05:52:00.519Z,67.30
2018-05-25T05:54:29.332Z,67.35
2018-05-25T05:56:58.081Z,66.39
2018-05-25T05:59:26.888Z,66.49
2018-05-25T06:01:55.703Z,66.76
2018-05-25T06:04:24.484Z,66.02
2018-05-25T06:06:53.243Z,64.33
2018-05-25T06:09:22.089Z,64.50
2018-05-25T06:11:50.847Z,64.48
2018-05-25T06:14:19.636Z,65.79
2018-05-25T06:16:48.453Z,65.47
2018-05-25T06:19:17.185Z,64.86
2018-05-25T06:21:46.117Z,64.32
2018-05-25T06:24:14.949Z,64.29
2018-05-25T06:26:43.690Z,64.55
2018-05-25T06:29:12.668Z,64.18
2018-05-25T06:31:41.550Z,63.34
2018-05-25T06:34:10.304Z,62.50
2018-05-25T06:36:39.031Z,61.41
2018-05-25T06:39:07.814Z,62.34
2018-05-25T06:41:36.603Z,62.38
2018-05-25T06:44:05.368Z,62.29
2018-05-25T06:46:34.176Z,61.44
2018-05-25T06:49:02.971Z,61.53
2018-05-25T06:51:32.253Z,61.78
2018-05-25T06:54:01.113Z,61.19
2018-05-25T06:56:29.866Z,61.67
2018-05-25T06:58:58.642Z,62.30
2018-05-25T07:01:27.426Z,62.59
2018-05-25T07:03:56.241Z,62.20
2018-05-25T07:06:24.999Z,61.21
2018-05-25T07:08:53.778Z,62.49
2018-05-25T07:11:22.526Z,61.84
2018-05-25T07:13:51.333Z,58.29
2018-05-25T07:16:20.142Z,59.99
2018-05-25T07:18:48.957Z,57.44
2018-05-25T07:21:17.743Z,58.60
2018-05-25T07:23:46.511Z,56.75
2018-05-25T07:26:15.313Z,57.66
2018-05-25T07:28:44.067Z,56.14
2018-05-25T07:31:12.827Z,56.90
2018-05-25T07:33:41.705Z,55.50
2018-05-25T07:36:10.557Z,54.45
2018-05-25T07:38:39.344Z,52.67
2018-05-25T07:41:08.117Z,52.55
2018-05-25T07:43:36.901Z,54.27
2018-05-25T07:46:05.661Z,53.74
2018-05-25T07:48:35.292Z,54.19
2018-05-25T07:51:04.168Z,55.29
2018-05-25T07:53:33.037Z,53.31
2018-05-25T07:56:02.931Z,52.43
2018-05-25T07:58:31.674Z,55.00
2018-05-25T08:01:00.479Z,52.44
2018-05-25T08:03:29.331Z,52.73
2018-05-25T08:05:58.077Z,53.37
2018-05-25T08:08:26.866Z,52.76
2018-05-25T08:10:55.687Z,51.47
2018-05-25T08:13:24.437Z,54.49
2018-05-25T08:15:53.190Z,52.34
2018-05-25T08:18:21.938Z,52.13
2018-05-25T08:20:51.102Z,52.73
2018-05-25T08:23:19.860Z,52.87
2018-05-25T08:25:48.646Z,54.25
2018-05-25T08:28:17.383Z,52.73
2018-05-25T08:30:46.181Z,52.67
2018-05-25T08:33:14.923Z,51.70
2018-05-25T08:35:43.679Z,51.41
2018-05-25T08:38:12.447Z,53.38
2018-05-25T08:40:42.401Z,50.77
2018-05-25T08:43:11.137Z,50.85
2018-05-25T08:45:39.928Z,48.72
2018-05-25T08:48:08.741Z,50.21
2018-05-25T08:50:37.504Z,49.81
2018-05-25T08:53:06.309Z,53.00
2018-05-25T08:55:35.217Z,50.76
2018-05-25T08:58:03.989Z,49.33
2018-05-25T09:00:34.550Z,52.12
2018-05-25T09:03:03.588Z,52.81
2018-05-25T09:05:32.384Z,53.64
2018-05-25T09:08:01.177Z,49.96
2018-05-25T09:10:30.340Z,48.35
2018-05-25T09:12:59.362Z,47.54
2018-05-25T09:15:28.202Z,48.36
2018-05-25T09:17:56.981Z,49.66
2018-05-25T09:20:25.815Z,47.22
2018-05-25T09:22:54.601Z,47.25
2018-05-25T09:25:23.403Z,48.56
2018-05-25T09:27:52.177Z,48.88
2018-05-25T09:30:20.901Z,50.42
2018-05-25T09:32:49.685Z,50.54
2018-05-25T09:35:18.470Z,49.99
2018-05-25T09:37:47.262Z,49.66
2018-05-25T09:40:16.049Z,51.08
2018-05-25T09:42:45.738Z,49.90
2018-05-25T09:45:14.687Z,48.89
2018-05-25T09:47:43.442Z,48.58
2018-05-25T09:50:12.217Z,48.22
2018-05-25T09:52:40.995Z,47.87
2018-05-25T09:55:10.510Z,50.32
2018-05-25T09:57:39.481Z,49.19
2018-05-25T10:00:08.299Z,49.89
2018-05-25T10:02:37.075Z,53.14
2018-05-25T10:05:05.828Z,55.41
2018-05-25T10:07:34.632Z,56.65
2018-05-25T10:10:04.151Z,60.71
2018-05-25T10:12:32.924Z,60.31
2018-05-25T10:15:01.746Z,62.11
2018-05-25T10:17:30.501Z,63.82
2018-05-25T10:19:59.360Z,63.85
2018-05-25T10:22:28.116Z,62.66
2018-05-25T10:24:57.642Z,61.97
2018-05-25T10:27:26.409Z,63.65
2018-05-25T10:29:55.364Z,63.74
2018-05-25T10:32:24.241Z,62.80
2018-05-25T10:34:52.985Z,62.04
2018-05-25T10:37:21.807Z,62.48
2018-05-25T10:39:50.629Z,61.73
2018-05-25T10:42:19.408Z,59.22
2018-05-25T10:44:48.165Z,59.63
2018-05-25T10:47:16.943Z,56.09
2018-05-25T10:49:45.711Z,58.38
2018-05-25T10:52:14.535Z,57.84
2018-05-25T10:54:43.340Z,57.51
2018-05-25T10:57:12.106Z,57.54
2018-05-25T10:59:40.861Z,60.00
2018-05-25T11:02:09.641Z,60.56
2018-05-25T11:04:38.808Z,61.48
2018-05-25T11:07:07.635Z,60.93
2018-05-25T11:09:36.420Z,60.33
2018-05-25T11:12:05.213Z,60.88
2018-05-25T11:14:35.955Z,60.23
2018-05-25T11:17:04.760Z,60.45
2018-05-25T11:19:35.350Z,60.63
2018-05-25T11:22:04.831Z,62.13
2018-05-25T11:24:34.706Z,64.41
2018-05-25T11:27:06.505Z,64.42
2018-05-25T11:29:35.252Z,63.32
2018-05-25T11:32:04.923Z,61.75
2018-05-25T11:34:35.525Z,60.79
2018-05-25T11:37:04.914Z,60.10
2018-05-25T11:39:33.737Z,60.68
2018-05-25T11:42:02.538Z,62.04
2018-05-25T11:44:31.328Z,61.74
2018-05-25T11:47:00.102Z,62.21
2018-05-25T11:49:28.914Z,63.38
2018-05-25T11:51:57.671Z,60.75
2018-05-25T11:54:26.458Z,60.69
2018-05-25T11:56:55.290Z,61.42
2018-05-25T11:59:24.119Z,61.74
2018-05-25T12:01:52.935Z,61.82
2018-05-25T12:04:21.825Z,61.47
2018-05-25T12:06:50.585Z,58.30
2018-05-25T12:09:19.353Z,56.80
2018-05-25T12:11:48.119Z,58.59
2018-05-25T12:14:16.878Z,57.22
2018-05-25T12:16:45.623Z,58.37
2018-05-25T12:19:14.474Z,58.77
2018-05-25T12:21:43.291Z,59.52
2018-05-25T12:24:12.054Z,59.37
2018-05-25T12:26:40.833Z,59.67
2018-05-25T12:29:09.593Z,59.33
2018-05-25T12:31:38.385Z,59.99
2018-05-25T12:34:07.204Z,59.19
2018-05-25T12:36:35.910Z,59.83
2018-05-25T12:39:05.457Z,59.72
2018-05-25T12:41:35.304Z,58.71
2018-05-25T12:44:04.079Z,58.49
2018-05-25T12:46:32.854Z,58.70
2018-05-25T12:49:01.642Z,60.12
2018-05-25T12:51:30.414Z,60.63
2018-05-25T12:53:59.164Z,60.42
2018-05-25T12:56:28.163Z,60.92
2018-05-25T12:58:56.941Z,60.71
2018-05-25T13:01:25.726Z,61.05
2018-05-25T13:03:54.555Z,61.57
2018-05-25T13:06:23.302Z,61.35
2018-05-25T13:08:52.075Z,61.65
2018-05-25T13:11:20.861Z,61.98
2018-05-25T13:13:49.675Z,62.36
2018-05-25T13:16:18.444Z,61.98
2018-05-25T13:18:47.232Z,60.70
2018-05-25T13:21:16.049Z,61.02
2018-05-25T13:23:45.048Z,60.77
2018-05-25T13:26:13.801Z,60.88
2018-05-25T13:28:42.565Z,62.31
2018-05-25T13:31:11.376Z,63.06
2018-05-25T13:33:40.163Z,63.05
2018-05-25T13:36:08.961Z,62.73
2018-05-25T13:38:37.692Z,62.83
2018-05-25T13:41:06.463Z,61.26
2018-05-25T13:43:35.966Z,61.38
2018-05-25T13:46:04.719Z,61.58
2018-05-25T13:48:34.321Z,62.31
2018-05-25T13:51:03.510Z,60.74
2018-05-25T13:53:32.245Z,61.33
2018-05-25T13:56:01.018Z,60.97
2018-05-25T13:58:29.848Z,61.79
2018-05-25T14:00:58.579Z,61.52
2018-05-25T14:03:27.306Z,61.76
2018-05-25T14:05:56.094Z,62.05
2018-05-25T14:08:25.425Z,62.28
2018-05-25T14:10:54.233Z,61.46
2018-05-25T14:13:23.017Z,60.18
2018-05-25T14:15:52.639Z,61.00
2018-05-25T14:18:21.385Z,61.27
2018-05-25T14:20:50.140Z,61.55
2018-05-25T14:23:18.905Z,61.94
2018-05-25T14:25:47.680Z,61.81
2018-05-25T14:28:16.405Z,61.90
2018-05-25T14:30:45.170Z,60.66
2018-05-25T14:33:14.106Z,61.30
2018-05-25T14:35:42.848Z,60.05
2018-05-25T14:38:11.627Z,60.70
2018-05-25T14:40:40.403Z,60.67
2018-05-25T14:43:09.136Z,61.02
2018-05-25T14:45:37.891Z,61.78
2018-05-25T14:48:06.665Z,62.38
2018-05-25T14:50:37.258Z,61.85
2018-05-25T14:53:06.686Z,61.85
2018-05-25T14:55:37.293Z,62.46
2018-05-25T14:58:06.747Z,62.84
2018-05-25T15:00:36.694Z,61.84
2018-05-25T15:03:06.581Z,61.62
2018-05-25T15:05:35.435Z,61.19
2018-05-25T15:08:04.209Z,61.22
2018-05-25T15:10:32.971Z,60.39
2018-05-25T15:13:01.733Z,61.40
2018-05-25T15:15:30.511Z,60.84
2018-05-25T15:17:59.355Z,58.46
2018-05-25T15:20:28.134Z,59.45
2018-05-25T15:22:56.946Z,57.35
2018-05-25T15:25:25.712Z,56.47
2018-05-25T15:27:54.514Z,55.65
2018-05-25T15:30:23.315Z,53.77
2018-05-25T15:32:52.167Z,55.87
2018-05-25T15:35:20.974Z,55.51
2018-05-25T15:37:49.717Z,55.06
2018-05-25T15:40:18.531Z,57.00
2018-05-25T15:42:47.357Z,57.88
2018-05-25T15:45:16.152Z,59.39
2018-05-25T15:47:44.936Z,58.83
2018-05-25T15:50:13.696Z,59.09
2018-05-25T15:52:42.483Z,61.51
2018-05-25T15:55:11.296Z,63.15
2018-05-25T15:57:40.076Z,62.37
2018-05-25T16:00:08.845Z,61.42
2018-05-25T16:02:37.646Z,61.73
2018-05-25T16:05:07.187Z,62.75
2018-05-25T16:07:37.859Z,62.18
2018-05-25T16:10:07.923Z,62.76
2018-05-25T16:12:37.247Z,62.74
2018-05-25T16:15:07.053Z,61.61
2018-05-25T16:17:35.819Z,61.06
2018-05-25T16:20:04.639Z,60.98
2018-05-25T16:22:33.417Z,61.03
2018-05-25T16:25:02.161Z,60.85
2018-05-25T16:27:30.998Z,60.77
2018-05-25T16:29:59.805Z,60.58
2018-05-25T16:32:28.557Z,59.31
2018-05-25T16:34:57.342Z,60.22
2018-05-25T16:37:26.137Z,59.65
2018-05-25T16:39:54.906Z,60.24
2018-05-25T16:42:23.721Z,60.87
2018-05-25T16:44:52.490Z,60.76
2018-05-25T16:47:21.277Z,60.45
2018-05-25T16:49:50.059Z,59.97
2018-05-25T16:52:18.834Z,59.05
2018-05-25T16:54:47.651Z,58.61
2018-05-25T16:57:16.480Z,58.45
2018-05-25T16:59:45.265Z,59.26
2018-05-25T17:02:14.115Z,59.19
2018-05-25T17:04:42.892Z,60.15
2018-05-25T17:07:11.896Z,60.09
2018-05-25T17:09:40.641Z,60.71
2018-05-25T17:12:09.451Z,61.66
2018-05-25T17:14:39.084Z,62.04
2018-05-25T17:17:07.873Z,62.22
2018-05-25T17:19:45.216Z,62.23
2018-05-25T17:22:22.910Z,62.66
2018-05-25T17:24:57.608Z,63.07
2018-05-25T17:27:32.475Z,63.41
2018-05-25T17:30:06.029Z,63.49
2018-05-25T17:32:37.673Z,63.44
2018-05-25T17:35:09.412Z,63.27
2018-05-25T17:37:45.245Z,63.29
2018-05-25T17:40:19.793Z,63.01
2018-05-25T17:42:50.408Z,63.01
2018-05-25T17:45:26.964Z,63.58
2018-05-25T17:47:57.529Z,63.53
2018-05-25T17:50:32.482Z,63.51
2018-05-25T17:53:04.614Z,63.63
2018-05-25T17:55:39.654Z,63.90
2018-05-25T17:58:14.077Z,63.64
2018-05-25T18:00:48.630Z,63.51
2018-05-25T18:03:23.357Z,63.94
2018-05-25T18:05:59.499Z,64.01
2018-05-25T18:08:35.675Z,63.54
2018-05-25T18:11:07.412Z,63.70
2018-05-25T18:13:38.260Z,63.73
2018-05-25T18:18:49.253Z,63.88
2018-05-25T18:21:22.884Z,64.18
2018-05-25T18:23:56.712Z,63.83
2018-05-25T18:26:30.281Z,64.53
2018-05-25T18:29:07.903Z,65.36
2018-05-25T18:31:43.765Z,65.37
2018-05-25T18:34:16.025Z,65.16
2018-05-25T18:36:48.184Z,65.15
2018-05-25T18:39:21.709Z,64.70
2018-05-25T18:41:53.656Z,64.67
2018-05-25T18:44:25.211Z,64.54
2018-05-25T18:46:59.447Z,64.11
2018-05-25T18:49:37.056Z,63.97
2018-05-25T18:52:09.156Z,64.20
2018-05-25T18:54:44.801Z,64.23
2018-05-25T18:57:21.478Z,64.42
2018-05-25T18:59:58.103Z,64.47
2018-05-25T19:02:31.968Z,64.69
2018-05-25T19:05:07.245Z,64.09
2018-05-25T19:07:43.280Z,64.31
2018-05-25T19:10:19.789Z,64.10
2018-05-25T19:12:51.115Z,63.75
2018-05-25T19:15:28.621Z,64.06
2018-05-25T19:18:02.886Z,64.30
2018-05-25T19:20:34.938Z,64.39
2018-05-25T19:23:08.233Z,64.84
2018-05-25T19:25:39.929Z,64.46
2018-05-25T19:28:13.678Z,64.57
2018-05-25T19:30:47.118Z,64.48
2018-05-25T19:33:24.378Z,64.28
2018-05-25T19:35:58.718Z,63.96
2018-05-25T19:41:09.525Z,64.22
2018-05-25T19:43:41.869Z,64.31
2018-05-25T19:46:13.672Z,64.12
2018-05-25T19:48:48.903Z,64.20
2018-05-25T19:51:24.286Z,64.87
2018-05-25T19:53:56.359Z,65.12
2018-05-25T19:56:30.536Z,65.05
2018-05-25T19:59:05.092Z,64.69
2018-05-25T20:01:41.664Z,64.01
2018-05-25T20:04:13.522Z,64.42
2018-05-25T20:06:44.036Z,64.82
2018-05-25T20:09:21.289Z,64.86
2018-05-25T20:11:55.355Z,64.72
2018-05-25T20:14:28.618Z,65.23
2018-05-25T20:17:01.443Z,65.25
2018-05-25T20:19:34.321Z,64.62
2018-05-25T20:22:06.294Z,64.72
2018-05-25T20:24:41.407Z,64.71
2018-05-25T20:27:13.132Z,65.37
2018-05-25T20:29:47.349Z,66.13
2018-05-25T20:32:21.342Z,66.43
2018-05-25T20:34:53.639Z,65.87
2018-05-25T20:37:31.151Z,65.60
2018-05-25T20:40:05.013Z,65.20
2018-05-25T20:42:42.756Z,65.46
2018-05-25T20:45:14.025Z,66.98
2018-05-25T20:47:45.331Z,67.13
2018-05-25T20:50:20.352Z,66.72
2018-05-25T20:52:56.412Z,66.69
2018-05-25T20:55:32.864Z,66.76
2018-05-25T21:00:50.473Z,67.04
2018-05-25T21:03:26.757Z,67.08
2018-05-25T21:06:00.497Z,66.40
2018-05-25T21:08:31.554Z,66.10
2018-05-25T21:11:06.139Z,65.68
2018-05-25T21:13:40.388Z,65.84
2018-05-25T21:16:15.928Z,66.64
2018-05-25T21:18:54.403Z,66.61
2018-05-25T21:21:31.122Z,66.39
2018-05-25T21:24:04.873Z,66.36
2018-05-25T21:26:38.022Z,66.27
2018-05-25T21:29:12.543Z,66.28
2018-05-25T21:31:44.138Z,67.34
2018-05-25T21:34:15.709Z,68.74
2018-05-25T21:36:49.711Z,68.76
2018-05-25T21:39:27.149Z,67.96
2018-05-25T21:42:03.043Z,67.41
2018-05-25T21:44:40.129Z,67.17
2018-05-25T21:47:11.758Z,67.07
2018-05-25T21:49:44.598Z,66.61
2018-05-25T21:52:16.534Z,66.62
2018-05-25T21:54:49.865Z,66.90
2018-05-25T21:57:27.747Z,66.81
2018-05-25T22:00:03.838Z,66.23
2018-05-25T22:02:36.369Z,65.98
2018-05-25T22:05:10.702Z,65.90
2018-05-25T22:07:42.399Z,65.98
2018-05-25T22:10:17.832Z,66.13
2018-05-25T22:12:51.242Z,66.60
2018-05-25T22:15:28.049Z,66.94
2018-05-25T22:17:58.683Z,66.39
2018-05-25T22:20:35.607Z,66.05
2018-05-25T22:23:12.359Z,66.40
2018-05-25T22:25:49.145Z,66.44
2018-05-25T22:28:22.197Z,66.81
2018-05-25T22:30:57.709Z,66.90
2018-05-25T22:33:30.527Z,67.25
2018-05-25T22:36:04.884Z,67.67
2018-05-25T22:38:41.040Z,67.90
2018-05-25T22:41:18.605Z,67.96
2018-05-25T22:44:02.239Z,67.58
2018-05-25T22:46:50.128Z,66.90
2018-05-25T22:49:40.699Z,66.94
2018-05-25T22:52:23.105Z,66.75
2018-05-25T22:54:58.480Z,66.37
2018-05-25T22:57:35.138Z,66.03
2018-05-25T23:00:06.448Z,65.69
2018-05-25T23:02:45.516Z,65.74
2018-05-25T23:05:18.298Z,66.03
2018-05-25T23:07:54.079Z,66.03
2018-05-25T23:10:29.734Z,66.89
2018-05-25T23:13:05.577Z,66.96
2018-05-25T23:15:39.444Z,66.82
2018-05-25T23:18:15.883Z,66.71
2018-05-25T23:20:52.569Z,67.18
2018-05-25T23:23:27.408Z,67.43
2018-05-25T23:26:00.958Z,67.06
2018-05-25T23:28:36.631Z,66.90
2018-05-25T23:31:10.892Z,66.80
2018-05-25T23:33:44.546Z,67.39
2018-05-25T23:36:19.296Z,67.17
2018-05-25T23:38:55.654Z,66.76
2018-05-25T23:41:32.253Z,66.60
2018-05-25T23:44:06.606Z,66.72
2018-05-25T23:46:41.265Z,66.42
2018-05-25T23:49:14.506Z,66.61
2018-05-25T23:51:47.616Z,66.62
2018-05-25T23:54:20.637Z,66.53
2018-05-25T23:56:56.876Z,66.27
2018-05-25T23:59:34.379Z,66.63
